sensor_id;sensor_type;location;lat;lon;timestamp;P1;durP1;ratioP1;P2;durP2;ratioP2
11228;SDS011;5671;47.936;8.716;2024-02-23T00:00:52;0.30;;;0.20;;
11228;SDS011;5671;47.936;8.716;2024-02-23T00:03:19;1.33;;;0.50;;
11228;SDS011;5671;47.936;8.716;2024-02-23T00:05:46;0.80;;;0.47;;
11228;SDS011;5671;47.936;8.716;2024-02-23T00:08:13;0.60;;;0.30;;
11228;SDS011;5671;47.936;8.716;2024-02-23T00:10:40;0.60;;;0.30;;
11228;SDS011;5671;47.936;8.716;2024-02-23T00:13:08;1.23;;;0.47;;
11228;SDS011;5671;47.936;8.716;2024-02-23T00:15:35;0.40;;;0.40;;
11228;SDS011;5671;47.936;8.716;2024-02-23T00:18:02;0.90;;;0.30;;
11228;SDS011;5671;47.936;8.716;2024-02-23T00:20:29;0.37;;;0.30;;
11228;SDS011;5671;47.936;8.716;2024-02-23T00:22:56;0.70;;;0.20;;
11228;SDS011;5671;47.936;8.716;2024-02-23T00:25:23;0.50;;;0.30;;
11228;SDS011;5671;47.936;8.716;2024-02-23T00:27:50;0.70;;;0.20;;
11228;SDS011;5671;47.936;8.716;2024-02-23T00:30:18;0.20;;;0.20;;
11228;SDS011;5671;47.936;8.716;2024-02-23T00:32:45;2.97;;;0.60;;
11228;SDS011;5671;47.936;8.716;2024-02-23T00:35:12;0.07;;;0.07;;
11228;SDS011;5671;47.936;8.716;2024-02-23T00:37:38;0.40;;;0.20;;
11228;SDS011;5671;47.936;8.716;2024-02-23T00:40:06;0.17;;;0.10;;
11228;SDS011;5671;47.936;8.716;2024-02-23T00:42:34;0.50;;;0.20;;
11228;SDS011;5671;47.936;8.716;2024-02-23T00:45:01;2.13;;;0.20;;
11228;SDS011;5671;47.936;8.716;2024-02-23T00:47:29;0.40;;;0.30;;
11228;SDS011;5671;47.936;8.716;2024-02-23T00:49:56;0.20;;;0.10;;
11228;SDS011;5671;47.936;8.716;2024-02-23T00:52:23;0.97;;;0.30;;
11228;SDS011;5671;47.936;8.716;2024-02-23T00:54:50;0.63;;;0.30;;
11228;SDS011;5671;47.936;8.716;2024-02-23T00:57:17;0.03;;;0.03;;
11228;SDS011;5671;47.936;8.716;2024-02-23T00:59:47;0.70;;;0.20;;
11228;SDS011;5671;47.936;8.716;2024-02-23T01:02:13;1.20;;;0.20;;
11228;SDS011;5671;47.936;8.716;2024-02-23T01:04:41;0.30;;;0.10;;
11228;SDS011;5671;47.936;8.716;2024-02-23T01:07:08;0.30;;;0.20;;
11228;SDS011;5671;47.936;8.716;2024-02-23T01:09:35;0.10;;;0.10;;
11228;SDS011;5671;47.936;8.716;2024-02-23T01:12:02;0.00;;;0.00;;
11228;SDS011;5671;47.936;8.716;2024-02-23T01:14:29;0.10;;;0.10;;
11228;SDS011;5671;47.936;8.716;2024-02-23T01:16:56;1.07;;;0.50;;
11228;SDS011;5671;47.936;8.716;2024-02-23T01:19:23;0.10;;;0.10;;
11228;SDS011;5671;47.936;8.716;2024-02-23T01:21:51;1.33;;;0.10;;
11228;SDS011;5671;47.936;8.716;2024-02-23T01:24:24;0.10;;;0.10;;
11228;SDS011;5671;47.936;8.716;2024-02-23T01:26:52;0.27;;;0.27;;
11228;SDS011;5671;47.936;8.716;2024-02-23T01:29:19;0.10;;;0.10;;
11228;SDS011;5671;47.936;8.716;2024-02-23T01:31:47;0.23;;;0.20;;
11228;SDS011;5671;47.936;8.716;2024-02-23T01:34:14;0.33;;;0.10;;
11228;SDS011;5671;47.936;8.716;2024-02-23T01:36:41;0.00;;;0.00;;
11228;SDS011;5671;47.936;8.716;2024-02-23T01:39:09;0.10;;;0.00;;
11228;SDS011;5671;47.936;8.716;2024-02-23T01:41:36;0.10;;;0.10;;
11228;SDS011;5671;47.936;8.716;2024-02-23T01:44:03;0.00;;;0.00;;
11228;SDS011;5671;47.936;8.716;2024-02-23T01:46:30;0.00;;;0.00;;
11228;SDS011;5671;47.936;8.716;2024-02-23T01:48:57;0.00;;;0.00;;
11228;SDS011;5671;47.936;8.716;2024-02-23T01:51:24;0.27;;;0.10;;
11228;SDS011;5671;47.936;8.716;2024-02-23T01:53:52;0.23;;;0.10;;
11228;SDS011;5671;47.936;8.716;2024-02-23T01:56:20;0.30;;;0.10;;
11228;SDS011;5671;47.936;8.716;2024-02-23T01:58:47;0.00;;;0.00;;
11228;SDS011;5671;47.936;8.716;2024-02-23T02:01:14;0.20;;;0.10;;
11228;SDS011;5671;47.936;8.716;2024-02-23T02:03:41;0.10;;;0.00;;
11228;SDS011;5671;47.936;8.716;2024-02-23T02:06:09;0.00;;;0.00;;
11228;SDS011;5671;47.936;8.716;2024-02-23T02:08:37;0.00;;;0.00;;
11228;SDS011;5671;47.936;8.716;2024-02-23T02:11:04;0.03;;;0.00;;
11228;SDS011;5671;47.936;8.716;2024-02-23T02:13:32;0.20;;;0.10;;
11228;SDS011;5671;47.936;8.716;2024-02-23T02:16:00;1.80;;;0.10;;
11228;SDS011;5671;47.936;8.716;2024-02-23T02:18:27;0.57;;;0.07;;
11228;SDS011;5671;47.936;8.716;2024-02-23T02:20:55;0.00;;;0.00;;
11228;SDS011;5671;47.936;8.716;2024-02-23T02:23:22;0.77;;;0.10;;
11228;SDS011;5671;47.936;8.716;2024-02-23T02:25:52;0.37;;;0.00;;
11228;SDS011;5671;47.936;8.716;2024-02-23T02:28:19;0.37;;;0.20;;
11228;SDS011;5671;47.936;8.716;2024-02-23T02:30:47;0.83;;;0.17;;
11228;SDS011;5671;47.936;8.716;2024-02-23T02:33:14;0.27;;;0.10;;
11228;SDS011;5671;47.936;8.716;2024-02-23T02:35:41;0.03;;;0.00;;
11228;SDS011;5671;47.936;8.716;2024-02-23T02:38:09;0.83;;;0.10;;
11228;SDS011;5671;47.936;8.716;2024-02-23T02:40:37;1.23;;;0.23;;
11228;SDS011;5671;47.936;8.716;2024-02-23T02:43:04;0.57;;;0.10;;
11228;SDS011;5671;47.936;8.716;2024-02-23T02:45:31;0.53;;;0.30;;
11228;SDS011;5671;47.936;8.716;2024-02-23T02:48:00;1.03;;;0.17;;
11228;SDS011;5671;47.936;8.716;2024-02-23T02:50:28;0.87;;;0.20;;
11228;SDS011;5671;47.936;8.716;2024-02-23T02:52:54;0.20;;;0.10;;
11228;SDS011;5671;47.936;8.716;2024-02-23T02:55:21;0.77;;;0.50;;
11228;SDS011;5671;47.936;8.716;2024-02-23T02:57:48;0.73;;;0.43;;
11228;SDS011;5671;47.936;8.716;2024-02-23T03:00:15;0.20;;;0.10;;
11228;SDS011;5671;47.936;8.716;2024-02-23T03:02:42;0.17;;;0.10;;
11228;SDS011;5671;47.936;8.716;2024-02-23T03:05:10;1.33;;;0.30;;
11228;SDS011;5671;47.936;8.716;2024-02-23T03:07:37;0.10;;;0.10;;
11228;SDS011;5671;47.936;8.716;2024-02-23T03:10:04;1.80;;;0.30;;
11228;SDS011;5671;47.936;8.716;2024-02-23T03:12:32;0.67;;;0.10;;
11228;SDS011;5671;47.936;8.716;2024-02-23T03:14:59;1.73;;;0.27;;
11228;SDS011;5671;47.936;8.716;2024-02-23T03:17:27;0.13;;;0.13;;
11228;SDS011;5671;47.936;8.716;2024-02-23T03:19:54;0.97;;;0.33;;
11228;SDS011;5671;47.936;8.716;2024-02-23T03:22:22;0.90;;;0.60;;
11228;SDS011;5671;47.936;8.716;2024-02-23T03:24:49;1.90;;;0.37;;
11228;SDS011;5671;47.936;8.716;2024-02-23T03:27:15;1.10;;;0.30;;
11228;SDS011;5671;47.936;8.716;2024-02-23T03:29:42;0.43;;;0.30;;
11228;SDS011;5671;47.936;8.716;2024-02-23T03:32:09;0.37;;;0.23;;
11228;SDS011;5671;47.936;8.716;2024-02-23T03:34:36;2.03;;;0.67;;
11228;SDS011;5671;47.936;8.716;2024-02-23T03:37:03;0.37;;;0.13;;
11228;SDS011;5671;47.936;8.716;2024-02-23T03:39:31;1.77;;;0.50;;
11228;SDS011;5671;47.936;8.716;2024-02-23T03:41:58;1.03;;;0.90;;
11228;SDS011;5671;47.936;8.716;2024-02-23T03:44:25;1.30;;;0.60;;
11228;SDS011;5671;47.936;8.716;2024-02-23T03:46:51;0.57;;;0.30;;
11228;SDS011;5671;47.936;8.716;2024-02-23T03:49:18;0.60;;;0.30;;
11228;SDS011;5671;47.936;8.716;2024-02-23T03:51:45;0.90;;;0.30;;
11228;SDS011;5671;47.936;8.716;2024-02-23T03:54:12;0.57;;;0.23;;
11228;SDS011;5671;47.936;8.716;2024-02-23T03:56:39;1.03;;;0.27;;
11228;SDS011;5671;47.936;8.716;2024-02-23T03:59:07;1.90;;;0.47;;
11228;SDS011;5671;47.936;8.716;2024-02-23T04:01:35;0.43;;;0.30;;
11228;SDS011;5671;47.936;8.716;2024-02-23T04:04:02;0.23;;;0.20;;
11228;SDS011;5671;47.936;8.716;2024-02-23T04:06:30;1.43;;;0.57;;
11228;SDS011;5671;47.936;8.716;2024-02-23T04:08:57;0.20;;;0.20;;
11228;SDS011;5671;47.936;8.716;2024-02-23T04:11:24;2.40;;;0.73;;
11228;SDS011;5671;47.936;8.716;2024-02-23T04:13:52;0.97;;;0.50;;
11228;SDS011;5671;47.936;8.716;2024-02-23T04:16:22;1.17;;;0.50;;
11228;SDS011;5671;47.936;8.716;2024-02-23T04:18:49;0.77;;;0.20;;
11228;SDS011;5671;47.936;8.716;2024-02-23T04:21:16;0.87;;;0.47;;
11228;SDS011;5671;47.936;8.716;2024-02-23T04:23:43;1.23;;;0.30;;
11228;SDS011;5671;47.936;8.716;2024-02-23T04:26:10;0.90;;;0.43;;
11228;SDS011;5671;47.936;8.716;2024-02-23T04:28:37;0.67;;;0.30;;
11228;SDS011;5671;47.936;8.716;2024-02-23T04:31:05;1.27;;;0.50;;
11228;SDS011;5671;47.936;8.716;2024-02-23T04:33:34;1.13;;;0.30;;
11228;SDS011;5671;47.936;8.716;2024-02-23T04:36:01;2.60;;;0.60;;
11228;SDS011;5671;47.936;8.716;2024-02-23T04:38:28;0.73;;;0.40;;
11228;SDS011;5671;47.936;8.716;2024-02-23T04:40:55;1.30;;;0.20;;
11228;SDS011;5671;47.936;8.716;2024-02-23T04:43:23;0.57;;;0.40;;
11228;SDS011;5671;47.936;8.716;2024-02-23T04:45:50;1.13;;;0.60;;
11228;SDS011;5671;47.936;8.716;2024-02-23T04:48:18;0.93;;;0.27;;
11228;SDS011;5671;47.936;8.716;2024-02-23T04:50:45;1.87;;;1.50;;
11228;SDS011;5671;47.936;8.716;2024-02-23T04:53:12;0.30;;;0.30;;
11228;SDS011;5671;47.936;8.716;2024-02-23T04:55:39;0.50;;;0.30;;
11228;SDS011;5671;47.936;8.716;2024-02-23T04:58:06;1.47;;;0.40;;
11228;SDS011;5671;47.936;8.716;2024-02-23T05:00:33;3.33;;;1.03;;
11228;SDS011;5671;47.936;8.716;2024-02-23T05:03:00;1.33;;;0.23;;
11228;SDS011;5671;47.936;8.716;2024-02-23T05:05:30;1.23;;;0.63;;
11228;SDS011;5671;47.936;8.716;2024-02-23T05:07:57;1.80;;;0.80;;
11228;SDS011;5671;47.936;8.716;2024-02-23T05:10:24;0.90;;;0.80;;
11228;SDS011;5671;47.936;8.716;2024-02-23T05:12:51;2.17;;;0.47;;
11228;SDS011;5671;47.936;8.716;2024-02-23T05:15:18;0.93;;;0.70;;
11228;SDS011;5671;47.936;8.716;2024-02-23T05:17:45;0.20;;;0.20;;
11228;SDS011;5671;47.936;8.716;2024-02-23T05:20:12;0.67;;;0.40;;
11228;SDS011;5671;47.936;8.716;2024-02-23T05:22:43;1.00;;;0.70;;
11228;SDS011;5671;47.936;8.716;2024-02-23T05:25:10;5.67;;;1.07;;
11228;SDS011;5671;47.936;8.716;2024-02-23T05:27:37;4.60;;;1.27;;
11228;SDS011;5671;47.936;8.716;2024-02-23T05:30:05;2.00;;;0.70;;
11228;SDS011;5671;47.936;8.716;2024-02-23T05:32:32;2.43;;;1.03;;
11228;SDS011;5671;47.936;8.716;2024-02-23T05:34:59;1.57;;;0.70;;
11228;SDS011;5671;47.936;8.716;2024-02-23T05:37:26;2.10;;;0.67;;
11228;SDS011;5671;47.936;8.716;2024-02-23T05:39:55;0.90;;;0.47;;
11228;SDS011;5671;47.936;8.716;2024-02-23T05:42:24;1.20;;;0.53;;
11228;SDS011;5671;47.936;8.716;2024-02-23T05:44:51;1.17;;;0.50;;
11228;SDS011;5671;47.936;8.716;2024-02-23T05:47:18;1.53;;;0.73;;
11228;SDS011;5671;47.936;8.716;2024-02-23T05:49:46;4.50;;;0.90;;
11228;SDS011;5671;47.936;8.716;2024-02-23T05:52:13;0.90;;;0.50;;
11228;SDS011;5671;47.936;8.716;2024-02-23T05:54:40;2.30;;;0.63;;
11228;SDS011;5671;47.936;8.716;2024-02-23T05:57:08;2.63;;;0.60;;
11228;SDS011;5671;47.936;8.716;2024-02-23T05:59:35;2.47;;;0.70;;
11228;SDS011;5671;47.936;8.716;2024-02-23T06:02:02;1.23;;;0.60;;
11228;SDS011;5671;47.936;8.716;2024-02-23T06:04:29;1.13;;;0.53;;
11228;SDS011;5671;47.936;8.716;2024-02-23T06:06:56;1.90;;;1.10;;
11228;SDS011;5671;47.936;8.716;2024-02-23T06:09:22;2.40;;;0.60;;
11228;SDS011;5671;47.936;8.716;2024-02-23T06:11:49;2.10;;;0.60;;
11228;SDS011;5671;47.936;8.716;2024-02-23T06:14:18;1.60;;;0.87;;
11228;SDS011;5671;47.936;8.716;2024-02-23T06:16:45;2.93;;;0.80;;
11228;SDS011;5671;47.936;8.716;2024-02-23T06:19:11;1.53;;;0.53;;
11228;SDS011;5671;47.936;8.716;2024-02-23T06:21:38;1.00;;;0.63;;
11228;SDS011;5671;47.936;8.716;2024-02-23T06:24:05;2.03;;;0.77;;
11228;SDS011;5671;47.936;8.716;2024-02-23T06:26:33;1.83;;;1.30;;
11228;SDS011;5671;47.936;8.716;2024-02-23T06:29:00;1.73;;;1.00;;
11228;SDS011;5671;47.936;8.716;2024-02-23T06:31:30;2.03;;;0.90;;
11228;SDS011;5671;47.936;8.716;2024-02-23T06:33:59;1.83;;;0.90;;
11228;SDS011;5671;47.936;8.716;2024-02-23T06:36:26;1.57;;;1.00;;
11228;SDS011;5671;47.936;8.716;2024-02-23T06:38:53;4.33;;;0.70;;
11228;SDS011;5671;47.936;8.716;2024-02-23T06:41:19;3.70;;;1.30;;
11228;SDS011;5671;47.936;8.716;2024-02-23T06:43:46;1.37;;;1.10;;
11228;SDS011;5671;47.936;8.716;2024-02-23T06:46:13;3.13;;;1.50;;
11228;SDS011;5671;47.936;8.716;2024-02-23T06:48:41;2.47;;;1.03;;
11228;SDS011;5671;47.936;8.716;2024-02-23T06:51:11;2.03;;;1.00;;
11228;SDS011;5671;47.936;8.716;2024-02-23T06:53:39;2.03;;;1.50;;
11228;SDS011;5671;47.936;8.716;2024-02-23T06:56:06;3.80;;;1.50;;
11228;SDS011;5671;47.936;8.716;2024-02-23T06:58:33;3.37;;;1.40;;
11228;SDS011;5671;47.936;8.716;2024-02-23T07:01:00;2.97;;;1.60;;
11228;SDS011;5671;47.936;8.716;2024-02-23T07:03:28;3.00;;;1.27;;
11228;SDS011;5671;47.936;8.716;2024-02-23T07:05:57;1.77;;;1.10;;
11228;SDS011;5671;47.936;8.716;2024-02-23T07:08:24;1.40;;;0.60;;
11228;SDS011;5671;47.936;8.716;2024-02-23T07:10:51;1.60;;;0.83;;
11228;SDS011;5671;47.936;8.716;2024-02-23T07:13:20;3.80;;;1.07;;
11228;SDS011;5671;47.936;8.716;2024-02-23T07:15:47;2.83;;;0.87;;
11228;SDS011;5671;47.936;8.716;2024-02-23T07:18:14;1.50;;;0.70;;
11228;SDS011;5671;47.936;8.716;2024-02-23T07:20:41;4.43;;;1.03;;
11228;SDS011;5671;47.936;8.716;2024-02-23T07:23:09;1.43;;;0.90;;
11228;SDS011;5671;47.936;8.716;2024-02-23T07:25:36;1.80;;;1.03;;
11228;SDS011;5671;47.936;8.716;2024-02-23T07:28:04;2.87;;;0.90;;
11228;SDS011;5671;47.936;8.716;2024-02-23T07:30:31;2.83;;;0.90;;
11228;SDS011;5671;47.936;8.716;2024-02-23T07:33:00;2.23;;;1.00;;
11228;SDS011;5671;47.936;8.716;2024-02-23T07:35:27;2.20;;;1.07;;
11228;SDS011;5671;47.936;8.716;2024-02-23T07:37:55;1.47;;;0.80;;
11228;SDS011;5671;47.936;8.716;2024-02-23T07:40:23;2.93;;;1.13;;
11228;SDS011;5671;47.936;8.716;2024-02-23T07:42:50;2.37;;;0.87;;
11228;SDS011;5671;47.936;8.716;2024-02-23T07:45:17;3.07;;;1.07;;
11228;SDS011;5671;47.936;8.716;2024-02-23T07:47:44;1.53;;;0.87;;
11228;SDS011;5671;47.936;8.716;2024-02-23T07:50:11;2.93;;;0.90;;
11228;SDS011;5671;47.936;8.716;2024-02-23T07:52:38;3.40;;;1.43;;
11228;SDS011;5671;47.936;8.716;2024-02-23T07:55:06;3.23;;;1.20;;
11228;SDS011;5671;47.936;8.716;2024-02-23T07:57:34;1.53;;;0.70;;
11228;SDS011;5671;47.936;8.716;2024-02-23T08:00:01;3.07;;;0.97;;
11228;SDS011;5671;47.936;8.716;2024-02-23T08:02:29;5.07;;;1.20;;
11228;SDS011;5671;47.936;8.716;2024-02-23T08:04:56;3.23;;;1.10;;
11228;SDS011;5671;47.936;8.716;2024-02-23T08:07:22;3.00;;;1.00;;
11228;SDS011;5671;47.936;8.716;2024-02-23T08:09:50;2.23;;;0.73;;
11228;SDS011;5671;47.936;8.716;2024-02-23T08:12:17;3.40;;;0.93;;
11228;SDS011;5671;47.936;8.716;2024-02-23T08:14:45;2.73;;;1.13;;
11228;SDS011;5671;47.936;8.716;2024-02-23T08:17:14;4.17;;;1.00;;
11228;SDS011;5671;47.936;8.716;2024-02-23T08:19:41;4.07;;;1.10;;
11228;SDS011;5671;47.936;8.716;2024-02-23T08:22:08;6.23;;;1.20;;
11228;SDS011;5671;47.936;8.716;2024-02-23T08:24:35;10.33;;;2.40;;
11228;SDS011;5671;47.936;8.716;2024-02-23T08:27:02;1.97;;;0.93;;
11228;SDS011;5671;47.936;8.716;2024-02-23T08:29:29;2.70;;;1.00;;
11228;SDS011;5671;47.936;8.716;2024-02-23T08:31:57;1.93;;;1.27;;
11228;SDS011;5671;47.936;8.716;2024-02-23T08:34:24;4.77;;;1.30;;
11228;SDS011;5671;47.936;8.716;2024-02-23T08:36:51;4.30;;;1.33;;
11228;SDS011;5671;47.936;8.716;2024-02-23T08:39:17;5.73;;;1.10;;
11228;SDS011;5671;47.936;8.716;2024-02-23T08:41:47;4.13;;;1.20;;
11228;SDS011;5671;47.936;8.716;2024-02-23T08:44:13;4.33;;;1.37;;
11228;SDS011;5671;47.936;8.716;2024-02-23T08:46:40;4.23;;;1.33;;
11228;SDS011;5671;47.936;8.716;2024-02-23T08:49:09;4.73;;;1.20;;
11228;SDS011;5671;47.936;8.716;2024-02-23T08:51:35;4.63;;;1.40;;
11228;SDS011;5671;47.936;8.716;2024-02-23T08:54:02;2.73;;;1.20;;
11228;SDS011;5671;47.936;8.716;2024-02-23T08:56:31;5.03;;;1.27;;
11228;SDS011;5671;47.936;8.716;2024-02-23T08:59:02;3.57;;;1.20;;
11228;SDS011;5671;47.936;8.716;2024-02-23T09:01:29;8.37;;;1.30;;
11228;SDS011;5671;47.936;8.716;2024-02-23T09:03:56;5.73;;;1.17;;
11228;SDS011;5671;47.936;8.716;2024-02-23T09:06:24;3.93;;;1.27;;
11228;SDS011;5671;47.936;8.716;2024-02-23T09:08:51;7.03;;;1.30;;
11228;SDS011;5671;47.936;8.716;2024-02-23T09:11:18;3.63;;;1.00;;
11228;SDS011;5671;47.936;8.716;2024-02-23T09:13:45;4.17;;;1.20;;
11228;SDS011;5671;47.936;8.716;2024-02-23T09:16:12;5.67;;;1.40;;
11228;SDS011;5671;47.936;8.716;2024-02-23T09:18:39;4.73;;;1.10;;
11228;SDS011;5671;47.936;8.716;2024-02-23T09:21:06;6.90;;;1.43;;
11228;SDS011;5671;47.936;8.716;2024-02-23T09:23:34;6.33;;;1.70;;
11228;SDS011;5671;47.936;8.716;2024-02-23T09:26:01;6.03;;;1.37;;
11228;SDS011;5671;47.936;8.716;2024-02-23T09:28:34;4.23;;;1.20;;
11228;SDS011;5671;47.936;8.716;2024-02-23T09:31:01;2.97;;;1.10;;
11228;SDS011;5671;47.936;8.716;2024-02-23T09:33:29;3.37;;;1.10;;
11228;SDS011;5671;47.936;8.716;2024-02-23T09:35:56;6.13;;;1.50;;
11228;SDS011;5671;47.936;8.716;2024-02-23T09:38:24;5.30;;;1.30;;
11228;SDS011;5671;47.936;8.716;2024-02-23T09:40:53;6.30;;;1.50;;
11228;SDS011;5671;47.936;8.716;2024-02-23T09:43:20;5.03;;;1.20;;
11228;SDS011;5671;47.936;8.716;2024-02-23T09:45:50;4.23;;;1.40;;
11228;SDS011;5671;47.936;8.716;2024-02-23T09:48:17;5.43;;;1.73;;
11228;SDS011;5671;47.936;8.716;2024-02-23T09:50:45;6.43;;;1.50;;
11228;SDS011;5671;47.936;8.716;2024-02-23T09:53:13;5.27;;;1.53;;
11228;SDS011;5671;47.936;8.716;2024-02-23T09:55:40;7.63;;;1.63;;
11228;SDS011;5671;47.936;8.716;2024-02-23T09:58:10;3.20;;;1.30;;
11228;SDS011;5671;47.936;8.716;2024-02-23T10:00:42;4.77;;;1.60;;
11228;SDS011;5671;47.936;8.716;2024-02-23T10:03:09;5.37;;;1.30;;
11228;SDS011;5671;47.936;8.716;2024-02-23T10:05:36;2.83;;;1.20;;
11228;SDS011;5671;47.936;8.716;2024-02-23T10:08:03;7.67;;;1.43;;
11228;SDS011;5671;47.936;8.716;2024-02-23T10:10:32;2.97;;;1.17;;
11228;SDS011;5671;47.936;8.716;2024-02-23T10:12:59;1.93;;;1.10;;
11228;SDS011;5671;47.936;8.716;2024-02-23T10:15:30;6.30;;;1.47;;
11228;SDS011;5671;47.936;8.716;2024-02-23T10:17:56;6.33;;;1.17;;
11228;SDS011;5671;47.936;8.716;2024-02-23T10:20:23;4.20;;;1.80;;
11228;SDS011;5671;47.936;8.716;2024-02-23T10:22:50;2.03;;;1.40;;
11228;SDS011;5671;47.936;8.716;2024-02-23T10:25:18;7.67;;;3.80;;
11228;SDS011;5671;47.936;8.716;2024-02-23T10:27:46;6.00;;;2.67;;
11228;SDS011;5671;47.936;8.716;2024-02-23T10:30:13;3.37;;;1.07;;
11228;SDS011;5671;47.936;8.716;2024-02-23T10:32:42;4.87;;;1.20;;
11228;SDS011;5671;47.936;8.716;2024-02-23T10:35:10;2.23;;;1.20;;
11228;SDS011;5671;47.936;8.716;2024-02-23T10:37:41;4.80;;;1.63;;
11228;SDS011;5671;47.936;8.716;2024-02-23T10:40:09;3.87;;;1.43;;
11228;SDS011;5671;47.936;8.716;2024-02-23T10:42:38;4.03;;;1.80;;
11228;SDS011;5671;47.936;8.716;2024-02-23T10:45:07;5.00;;;1.60;;
11228;SDS011;5671;47.936;8.716;2024-02-23T10:47:34;5.37;;;1.50;;
11228;SDS011;5671;47.936;8.716;2024-02-23T10:50:04;5.80;;;1.57;;
11228;SDS011;5671;47.936;8.716;2024-02-23T10:52:33;2.63;;;1.13;;
11228;SDS011;5671;47.936;8.716;2024-02-23T10:55:01;6.13;;;1.30;;
11228;SDS011;5671;47.936;8.716;2024-02-23T10:57:29;4.43;;;1.80;;
11228;SDS011;5671;47.936;8.716;2024-02-23T10:59:57;3.63;;;1.47;;
11228;SDS011;5671;47.936;8.716;2024-02-23T11:02:25;4.60;;;1.90;;
11228;SDS011;5671;47.936;8.716;2024-02-23T11:04:55;5.80;;;1.70;;
11228;SDS011;5671;47.936;8.716;2024-02-23T11:07:25;3.60;;;1.57;;
11228;SDS011;5671;47.936;8.716;2024-02-23T11:09:53;2.70;;;1.30;;
11228;SDS011;5671;47.936;8.716;2024-02-23T11:12:22;3.33;;;1.20;;
11228;SDS011;5671;47.936;8.716;2024-02-23T11:14:50;4.40;;;1.40;;
11228;SDS011;5671;47.936;8.716;2024-02-23T11:17:18;6.10;;;1.60;;
11228;SDS011;5671;47.936;8.716;2024-02-23T11:19:46;2.10;;;1.00;;
11228;SDS011;5671;47.936;8.716;2024-02-23T11:22:15;4.13;;;1.60;;
11228;SDS011;5671;47.936;8.716;2024-02-23T11:24:52;3.43;;;1.43;;
11228;SDS011;5671;47.936;8.716;2024-02-23T11:27:19;5.87;;;1.80;;
11228;SDS011;5671;47.936;8.716;2024-02-23T11:29:46;5.17;;;1.47;;
11228;SDS011;5671;47.936;8.716;2024-02-23T11:32:14;3.30;;;1.27;;
11228;SDS011;5671;47.936;8.716;2024-02-23T11:34:52;4.37;;;1.50;;
11228;SDS011;5671;47.936;8.716;2024-02-23T11:37:21;5.63;;;1.40;;
11228;SDS011;5671;47.936;8.716;2024-02-23T11:39:50;6.03;;;1.30;;
11228;SDS011;5671;47.936;8.716;2024-02-23T11:42:17;7.33;;;1.73;;
11228;SDS011;5671;47.936;8.716;2024-02-23T11:44:45;4.33;;;1.37;;
11228;SDS011;5671;47.936;8.716;2024-02-23T11:47:12;5.53;;;1.60;;
11228;SDS011;5671;47.936;8.716;2024-02-23T11:49:39;5.87;;;1.17;;
11228;SDS011;5671;47.936;8.716;2024-02-23T11:52:06;6.73;;;1.20;;
11228;SDS011;5671;47.936;8.716;2024-02-23T11:54:33;5.83;;;1.33;;
11228;SDS011;5671;47.936;8.716;2024-02-23T11:57:02;3.40;;;1.00;;
11228;SDS011;5671;47.936;8.716;2024-02-23T11:59:29;5.20;;;1.20;;
11228;SDS011;5671;47.936;8.716;2024-02-23T12:01:56;5.10;;;1.70;;
11228;SDS011;5671;47.936;8.716;2024-02-23T12:04:26;3.60;;;1.93;;
11228;SDS011;5671;47.936;8.716;2024-02-23T12:06:54;3.97;;;1.40;;
11228;SDS011;5671;47.936;8.716;2024-02-23T12:09:22;5.77;;;1.70;;
11228;SDS011;5671;47.936;8.716;2024-02-23T12:11:48;4.93;;;1.27;;
11228;SDS011;5671;47.936;8.716;2024-02-23T12:14:17;5.20;;;1.60;;
11228;SDS011;5671;47.936;8.716;2024-02-23T12:16:44;3.83;;;1.63;;
11228;SDS011;5671;47.936;8.716;2024-02-23T12:19:11;4.70;;;1.30;;
11228;SDS011;5671;47.936;8.716;2024-02-23T12:21:38;4.73;;;1.37;;
11228;SDS011;5671;47.936;8.716;2024-02-23T12:24:05;7.77;;;1.63;;
11228;SDS011;5671;47.936;8.716;2024-02-23T12:26:33;3.60;;;1.23;;
11228;SDS011;5671;47.936;8.716;2024-02-23T12:29:00;6.07;;;1.07;;
11228;SDS011;5671;47.936;8.716;2024-02-23T12:31:30;7.00;;;1.00;;
11228;SDS011;5671;47.936;8.716;2024-02-23T12:33:58;4.70;;;0.93;;
11228;SDS011;5671;47.936;8.716;2024-02-23T12:36:25;3.90;;;1.30;;
11228;SDS011;5671;47.936;8.716;2024-02-23T12:38:52;6.93;;;1.40;;
11228;SDS011;5671;47.936;8.716;2024-02-23T12:41:19;4.73;;;1.30;;
11228;SDS011;5671;47.936;8.716;2024-02-23T12:43:45;2.13;;;1.00;;
11228;SDS011;5671;47.936;8.716;2024-02-23T12:46:13;2.93;;;1.00;;
11228;SDS011;5671;47.936;8.716;2024-02-23T12:48:41;2.80;;;0.83;;
11228;SDS011;5671;47.936;8.716;2024-02-23T12:51:08;3.80;;;1.27;;
11228;SDS011;5671;47.936;8.716;2024-02-23T12:53:35;4.67;;;1.33;;
11228;SDS011;5671;47.936;8.716;2024-02-23T12:56:03;4.03;;;1.07;;
11228;SDS011;5671;47.936;8.716;2024-02-23T12:58:33;6.40;;;1.20;;
11228;SDS011;5671;47.936;8.716;2024-02-23T13:01:00;5.07;;;1.53;;
11228;SDS011;5671;47.936;8.716;2024-02-23T13:03:27;5.30;;;1.10;;
11228;SDS011;5671;47.936;8.716;2024-02-23T13:05:56;2.23;;;0.80;;
11228;SDS011;5671;47.936;8.716;2024-02-23T13:08:23;3.77;;;1.03;;
11228;SDS011;5671;47.936;8.716;2024-02-23T13:10:52;2.53;;;0.90;;
11228;SDS011;5671;47.936;8.716;2024-02-23T13:13:20;2.90;;;1.20;;
11228;SDS011;5671;47.936;8.716;2024-02-23T13:15:48;5.50;;;1.40;;
11228;SDS011;5671;47.936;8.716;2024-02-23T13:18:15;4.97;;;1.30;;
11228;SDS011;5671;47.936;8.716;2024-02-23T13:20:44;2.83;;;1.30;;
11228;SDS011;5671;47.936;8.716;2024-02-23T13:23:12;4.10;;;1.10;;
11228;SDS011;5671;47.936;8.716;2024-02-23T13:25:40;5.63;;;1.37;;
11228;SDS011;5671;47.936;8.716;2024-02-23T13:28:08;4.90;;;1.17;;
11228;SDS011;5671;47.936;8.716;2024-02-23T13:30:36;4.43;;;1.17;;
11228;SDS011;5671;47.936;8.716;2024-02-23T13:33:04;3.93;;;1.33;;
11228;SDS011;5671;47.936;8.716;2024-02-23T13:35:33;5.70;;;1.10;;
11228;SDS011;5671;47.936;8.716;2024-02-23T13:37:59;3.50;;;1.03;;
11228;SDS011;5671;47.936;8.716;2024-02-23T13:40:29;4.30;;;1.20;;
11228;SDS011;5671;47.936;8.716;2024-02-23T13:42:56;3.67;;;0.93;;
11228;SDS011;5671;47.936;8.716;2024-02-23T13:45:23;5.93;;;1.53;;
11228;SDS011;5671;47.936;8.716;2024-02-23T13:47:57;3.63;;;1.23;;
11228;SDS011;5671;47.936;8.716;2024-02-23T13:50:24;2.87;;;1.10;;
11228;SDS011;5671;47.936;8.716;2024-02-23T13:52:52;3.63;;;1.03;;
11228;SDS011;5671;47.936;8.716;2024-02-23T13:55:19;8.53;;;1.37;;
11228;SDS011;5671;47.936;8.716;2024-02-23T13:57:48;2.40;;;1.27;;
11228;SDS011;5671;47.936;8.716;2024-02-23T14:00:15;5.33;;;1.07;;
11228;SDS011;5671;47.936;8.716;2024-02-23T14:02:46;5.17;;;1.27;;
11228;SDS011;5671;47.936;8.716;2024-02-23T14:05:14;2.87;;;1.20;;
11228;SDS011;5671;47.936;8.716;2024-02-23T14:07:43;3.13;;;1.10;;
11228;SDS011;5671;47.936;8.716;2024-02-23T14:10:10;3.93;;;1.33;;
11228;SDS011;5671;47.936;8.716;2024-02-23T14:12:37;2.07;;;1.03;;
11228;SDS011;5671;47.936;8.716;2024-02-23T14:15:05;4.40;;;0.83;;
11228;SDS011;5671;47.936;8.716;2024-02-23T14:17:34;3.67;;;1.30;;
11228;SDS011;5671;47.936;8.716;2024-02-23T14:20:01;1.80;;;0.90;;
11228;SDS011;5671;47.936;8.716;2024-02-23T14:22:28;3.37;;;1.30;;
11228;SDS011;5671;47.936;8.716;2024-02-23T14:24:56;3.87;;;1.50;;
11228;SDS011;5671;47.936;8.716;2024-02-23T14:27:23;4.20;;;1.10;;
11228;SDS011;5671;47.936;8.716;2024-02-23T14:29:52;3.97;;;1.30;;
11228;SDS011;5671;47.936;8.716;2024-02-23T14:32:20;3.93;;;1.53;;
11228;SDS011;5671;47.936;8.716;2024-02-23T14:34:47;3.73;;;1.20;;
11228;SDS011;5671;47.936;8.716;2024-02-23T14:37:14;4.67;;;1.10;;
11228;SDS011;5671;47.936;8.716;2024-02-23T14:39:41;2.53;;;1.00;;
11228;SDS011;5671;47.936;8.716;2024-02-23T14:42:11;3.83;;;1.13;;
11228;SDS011;5671;47.936;8.716;2024-02-23T14:44:38;2.87;;;1.00;;
11228;SDS011;5671;47.936;8.716;2024-02-23T14:47:05;4.37;;;1.10;;
11228;SDS011;5671;47.936;8.716;2024-02-23T14:49:34;2.47;;;1.20;;
11228;SDS011;5671;47.936;8.716;2024-02-23T14:52:00;6.97;;;1.50;;
11228;SDS011;5671;47.936;8.716;2024-02-23T14:54:28;7.07;;;1.50;;
11228;SDS011;5671;47.936;8.716;2024-02-23T14:56:57;1.97;;;1.20;;
11228;SDS011;5671;47.936;8.716;2024-02-23T14:59:24;5.80;;;1.70;;
11228;SDS011;5671;47.936;8.716;2024-02-23T15:01:51;3.00;;;1.47;;